Time;durP1;ratioP1;P1;durP2;ratioP2;P2;SDS_P1;SDS_P2;PMS_P1;PMS_P2;Temp;Humidity;BMP_temperature;BMP_pressure;BME280_temperature;BME280_humidity;BME280_pressure;Samples;Min_cycle;Max_cycle;Signal;HPM_P1;HPM_P2
2021/03/04 00:00:24;;;;;;;386.20;89.50;;;;;;;3.71;100.00;101955.34;4952277;28;20518;-79
2021/03/04 00:02:50;;;;;;;401.60;92.78;;;;;;;3.76;100.00;101961.25;4949442;28;20039;-79
2021/03/04 00:05:15;;;;;;;426.38;96.40;;;;;;;3.66;100.00;101958.31;4942643;28;20059;-79
2021/03/04 00:07:41;;;;;;;466.35;93.70;;;;;;;3.62;100.00;101964.72;4947029;28;20035;-79
2021/03/04 00:10:12;;;;;;;411.10;92.93;;;;;;;3.58;100.00;101961.41;4949752;28;20050;-79
2021/03/04 00:12:39;;;;;;;401.05;90.90;;;;;;;3.59;100.00;101967.56;4949499;28;20047;-79
2021/03/04 00:15:07;;;;;;;506.45;96.50;;;;;;;3.67;100.00;101960.00;4963546;28;20118;-79
2021/03/04 00:17:33;;;;;;;469.58;94.53;;;;;;;3.66;100.00;101958.31;4949699;28;20046;-78
2021/03/04 00:19:58;;;;;;;318.85;89.50;;;;;;;3.83;100.00;101952.84;4950198;28;20044;-78
2021/03/04 00:22:23;;;;;;;332.65;87.82;;;;;;;3.79;100.00;101948.66;4951256;28;20062;-79
2021/03/04 00:24:49;;;;;;;465.73;97.28;;;;;;;3.66;100.00;101953.00;4944646;28;20035;-79
2021/03/04 00:27:14;;;;;;;324.67;85.57;;;;;;;3.70;100.00;101938.59;4939976;28;20127;-78
2021/03/04 00:29:40;;;;;;;354.33;86.53;;;;;;;3.60;100.00;101942.75;4947185;28;20049;-78
2021/03/04 00:32:06;;;;;;;402.88;87.05;;;;;;;3.65;100.00;101940.66;4931206;29;20126;-78
2021/03/04 00:34:32;;;;;;;333.95;83.50;;;;;;;3.66;100.00;101939.72;4949430;28;20040;-78
2021/03/04 00:36:57;;;;;;;262.38;70.47;;;;;;;3.59;100.00;101933.91;4951453;28;20039;-79
2021/03/04 00:39:23;;;;;;;257.08;70.75;;;;;;;3.56;100.00;101931.44;4950367;28;20086;-78
2021/03/04 00:41:48;;;;;;;235.02;66.13;;;;;;;3.55;100.00;101926.22;4947279;28;20404;-78
2021/03/04 00:44:13;;;;;;;235.75;65.45;;;;;;;3.61;100.00;101928.53;4945000;28;20047;-78
2021/03/04 00:46:39;;;;;;;242.77;63.25;;;;;;;3.58;100.00;101931.34;4930248;28;20039;-79
2021/03/04 00:49:04;;;;;;;243.30;67.18;;;;;;;3.63;100.00;101941.72;4913134;29;20062;-78
2021/03/04 00:51:30;;;;;;;264.45;68.93;;;;;;;3.53;100.00;101936.94;4950254;28;20086;-79
2021/03/04 00:53:55;;;;;;;255.57;67.93;;;;;;;3.57;100.00;101946.44;4949016;28;20180;-79
2021/03/04 00:56:21;;;;;;;257.77;66.70;;;;;;;3.55;100.00;101944.81;4945901;28;20464;-79
2021/03/04 00:58:47;;;;;;;262.38;67.78;;;;;;;3.56;100.00;101934.09;4947157;28;20043;-78
2021/03/04 01:01:12;;;;;;;270.67;66.75;;;;;;;3.52;100.00;101935.22;4950445;28;20039;-78
2021/03/04 01:03:38;;;;;;;265.02;66.82;;;;;;;3.55;100.00;101948.31;4948043;28;20039;-78
2021/03/04 01:06:04;;;;;;;263.27;68.93;;;;;;;3.58;100.00;101941.97;4964220;28;20080;-79
2021/03/04 01:08:29;;;;;;;264.15;72.38;;;;;;;3.60;100.00;101940.09;4949287;28;20484;-79
2021/03/04 01:10:54;;;;;;;270.38;66.85;;;;;;;3.64;100.00;101924.81;4951011;28;20044;-79
2021/03/04 01:13:22;;;;;;;282.25;69.57;;;;;;;3.52;100.00;101927.25;4951558;28;20496;-79
2021/03/04 01:15:47;;;;;;;317.55;74.00;;;;;;;3.54;100.00;101922.72;4946472;28;20061;-79
2021/03/04 01:18:13;;;;;;;250.75;65.45;;;;;;;3.51;100.00;101916.72;4943996;28;20469;-79
2021/03/04 01:20:38;;;;;;;307.15;71.43;;;;;;;3.46;100.00;101916.16;4928450;28;20074;-79
2021/03/04 01:23:03;;;;;;;269.85;65.85;;;;;;;3.51;100.00;101911.41;4947307;28;20046;-79
2021/03/04 01:25:29;;;;;;;279.45;67.85;;;;;;;3.44;100.00;101912.75;4962197;28;20547;-79
2021/03/04 01:27:56;;;;;;;258.33;64.63;;;;;;;3.42;100.00;101901.34;4962669;28;20504;-79
2021/03/04 01:30:30;;;;;;;264.92;60.58;;;;;;;3.38;100.00;101916.59;4948517;28;20043;-79
2021/03/04 01:32:56;;;;;;;268.33;64.38;;;;;;;3.36;100.00;101907.88;4942520;28;20146;-79
2021/03/04 01:35:22;;;;;;;253.77;62.75;;;;;;;3.47;100.00;101908.09;4958560;28;20036;-78
2021/03/04 01:37:48;;;;;;;231.70;61.38;;;;;;;3.47;100.00;101900.13;4947238;28;20058;-79
2021/03/04 01:40:20;;;;;;;245.52;59.00;;;;;;;3.41;100.00;101894.34;4948767;28;20039;-78
2021/03/04 01:42:46;;;;;;;200.95;53.10;;;;;;;3.37;100.00;101894.53;4958770;28;20399;-79
2021/03/04 01:45:12;;;;;;;173.77;51.83;;;;;;;3.37;100.00;101889.22;4948590;28;20043;-78
2021/03/04 01:47:40;;;;;;;170.05;50.90;;;;;;;3.39;100.00;101876.72;4951921;28;20047;-79
2021/03/04 01:50:08;;;;;;;165.80;46.88;;;;;;;3.42;100.00;101880.13;4937317;28;20098;-79
2021/03/04 01:52:35;;;;;;;160.85;50.35;;;;;;;3.33;100.00;101874.41;4946335;28;20071;-78
2021/03/04 01:55:00;;;;;;;163.18;47.15;;;;;;;3.33;100.00;101871.75;4948497;28;20046;-79
2021/03/04 01:57:30;;;;;;;167.23;52.25;;;;;;;3.34;100.00;101873.50;4949267;28;20050;-79
2021/03/04 01:59:57;;;;;;;191.30;53.10;;;;;;;3.29;100.00;101880.88;4950044;28;20069;-79
2021/03/04 02:02:22;;;;;;;185.85;52.03;;;;;;;3.29;100.00;101883.50;4936469;29;20122;-79
2021/03/04 02:04:49;;;;;;;217.13;54.30;;;;;;;3.26;100.00;101877.53;4951197;28;20186;-79
2021/03/04 02:07:33;;;;;;;224.20;55.75;;;;;;;3.22;100.00;101863.56;4952655;28;20054;-79
2021/03/04 02:10:04;;;;;;;224.23;56.38;;;;;;;3.27;100.00;101842.94;4951908;28;20039;-79
2021/03/04 02:12:39;;;;;;;246.45;61.05;;;;;;;3.31;100.00;101839.19;4950821;28;20043;-79
2021/03/04 02:15:10;;;;;;;296.63;63.55;;;;;;;3.33;100.00;101862.94;4950261;28;20043;-79
2021/03/04 02:17:42;;;;;;;316.83;68.32;;;;;;;3.32;100.00;101856.78;4950767;28;20058;-79
2021/03/04 02:20:13;;;;;;;319.73;70.18;;;;;;;3.42;100.00;101856.25;4954292;28;20050;-79
2021/03/04 02:23:10;;;;;;;319.85;66.47;;;;;;;3.21;100.00;101845.13;4952554;28;20174;-79
2021/03/04 02:25:53;;;;;;;381.13;70.30;;;;;;;3.15;100.00;101835.72;4950001;28;20090;-79
2021/03/04 02:28:20;;;;;;;364.25;70.03;;;;;;;3.19;100.00;101829.28;4952618;28;20047;-79
2021/03/04 02:30:47;;;;;;;428.58;76.88;;;;;;;3.26;100.00;101830.63;4954886;28;20078;-79
2021/03/04 02:33:25;;;;;;;445.55;76.60;;;;;;;3.19;100.00;101826.63;4953837;29;20043;-79
2021/03/04 02:35:54;;;;;;;389.67;71.13;;;;;;;3.21;100.00;101823.91;4951072;28;20431;-79
2021/03/04 02:38:20;;;;;;;471.27;78.45;;;;;;;3.21;100.00;101813.28;4967058;28;20115;-79
2021/03/04 02:40:49;;;;;;;375.63;72.88;;;;;;;3.21;100.00;101803.53;4952335;28;20066;-79
2021/03/04 02:43:17;;;;;;;340.98;70.95;;;;;;;3.24;100.00;101802.50;4951704;28;20436;-79
2021/03/04 02:45:43;;;;;;;347.17;71.25;;;;;;;3.19;100.00;101802.75;4949593;28;20074;-79
2021/03/04 02:48:17;;;;;;;277.85;64.40;;;;;;;3.15;100.00;101809.19;4947269;28;20031;-78
2021/03/04 02:50:45;;;;;;;208.52;57.08;;;;;;;3.15;100.00;101818.00;4950048;28;20043;-79
2021/03/04 02:53:12;;;;;;;199.70;53.40;;;;;;;3.07;100.00;101812.28;4947211;28;20058;-78
2021/03/04 02:55:38;;;;;;;184.55;51.80;;;;;;;3.16;100.00;101816.19;4953881;28;20146;-79
2021/03/04 02:58:07;;;;;;;206.43;52.17;;;;;;;3.22;100.00;101815.84;4949310;28;20035;-79
2021/03/04 03:00:34;;;;;;;220.68;52.20;;;;;;;3.17;100.00;101815.28;4944280;28;20538;-79
2021/03/04 03:03:01;;;;;;;203.23;54.40;;;;;;;3.12;100.00;101814.69;4950338;28;20071;-79
2021/03/04 03:05:31;;;;;;;193.90;52.78;;;;;;;3.13;100.00;101816.38;4951484;28;20098;-79
2021/03/04 03:07:58;;;;;;;186.38;46.92;;;;;;;3.15;100.00;101819.81;4949723;28;20050;-78
2021/03/04 03:10:25;;;;;;;192.00;50.65;;;;;;;3.13;100.00;101811.09;4948186;28;20047;-78
2021/03/04 03:12:50;;;;;;;200.73;55.03;;;;;;;3.24;100.00;101816.59;4940863;28;20055;-78
2021/03/04 03:15:18;;;;;;;200.57;54.35;;;;;;;3.12;100.00;101814.69;4950611;28;20105;-78
2021/03/04 03:17:47;;;;;;;198.13;55.28;;;;;;;3.12;100.00;101804.94;4960436;28;20093;-79
2021/03/04 03:20:18;;;;;;;196.73;50.67;;;;;;;3.14;100.00;101810.16;4954513;28;20097;-79
2021/03/04 03:22:48;;;;;;;217.20;53.13;;;;;;;3.08;100.00;101815.78;4947740;28;20039;-79
2021/03/04 03:25:14;;;;;;;230.35;55.17;;;;;;;3.03;100.00;101817.91;4931653;29;20043;-79
2021/03/04 03:27:42;;;;;;;219.50;54.70;;;;;;;3.01;100.00;101803.84;4954689;28;20047;-79
2021/03/04 03:30:14;;;;;;;214.00;55.35;;;;;;;3.00;100.00;101795.06;4950252;28;20046;-79
2021/03/04 03:32:45;;;;;;;216.38;55.03;;;;;;;3.00;100.00;101788.91;4947479;28;20396;-79
2021/03/04 03:35:11;;;;;;;193.68;50.70;;;;;;;3.02;100.00;101777.25;4945658;28;20046;-79
2021/03/04 03:37:38;;;;;;;178.45;50.50;;;;;;;3.01;100.00;101780.84;4946514;28;20453;-79
2021/03/04 03:40:06;;;;;;;169.95;50.25;;;;;;;3.06;100.00;101785.88;4947717;29;20047;-78
2021/03/04 03:42:34;;;;;;;165.85;49.50;;;;;;;3.05;100.00;101784.16;4951129;28;20037;-79
2021/03/04 03:45:01;;;;;;;139.38;44.08;;;;;;;2.97;100.00;101781.97;4964208;28;20050;-78
2021/03/04 03:47:28;;;;;;;144.95;46.40;;;;;;;3.02;100.00;101781.69;4953054;28;20062;-79
2021/03/04 03:49:54;;;;;;;133.32;45.53;;;;;;;3.02;100.00;101779.03;4951615;28;20492;-79
2021/03/04 03:52:22;;;;;;;143.75;45.85;;;;;;;3.01;100.00;101780.84;4950639;28;20189;-78
2021/03/04 03:54:47;;;;;;;143.02;43.75;;;;;;;3.07;100.00;101776.97;4948553;28;20043;-79
2021/03/04 03:57:14;;;;;;;138.07;43.05;;;;;;;3.00;100.00;101775.66;4932711;29;20392;-79
2021/03/04 03:59:40;;;;;;;139.35;41.70;;;;;;;3.09;100.00;101772.44;4951761;28;20094;-78
2021/03/04 04:02:06;;;;;;;126.55;42.88;;;;;;;2.97;100.00;101762.56;4953195;28;20094;-79
2021/03/04 04:04:32;;;;;;;142.20;46.17;;;;;;;2.99;100.00;101755.34;4951528;28;20039;-79
2021/03/04 04:06:58;;;;;;;135.32;43.35;;;;;;;3.05;100.00;101744.38;4948760;28;20051;-81
2021/03/04 04:09:24;;;;;;;135.98;44.33;;;;;;;3.02;100.00;101745.44;4949528;28;20472;-79
2021/03/04 04:11:50;;;;;;;137.02;44.85;;;;;;;3.14;100.00;101744.69;4949922;28;20039;-78
2021/03/04 04:14:15;;;;;;;147.48;44.33;;;;;;;3.17;100.00;101730.41;4965382;28;20043;-78
2021/03/04 04:16:41;;;;;;;134.57;43.15;;;;;;;3.19;100.00;101717.03;4948506;28;20045;-78
2021/03/04 04:19:07;;;;;;;133.45;43.22;;;;;;;3.15;100.00;101716.38;4953154;28;20098;-79
2021/03/04 04:21:33;;;;;;;129.27;42.33;;;;;;;3.15;100.00;101703.09;4947617;28;20043;-78
2021/03/04 04:24:00;;;;;;;141.35;44.35;;;;;;;3.11;100.00;101702.44;4949925;28;20102;-78
2021/03/04 04:26:25;;;;;;;144.35;46.25;;;;;;;3.04;100.00;101705.56;4942814;28;20035;-78
2021/03/04 04:28:50;;;;;;;145.65;44.78;;;;;;;2.94;100.00;101716.72;4947604;28;20062;-79
2021/03/04 04:31:16;;;;;;;134.95;43.92;;;;;;;2.98;100.00;101713.88;4945577;28;20054;-78
2021/03/04 04:33:42;;;;;;;154.82;46.28;;;;;;;2.98;100.00;101716.53;4951330;28;20055;-78
2021/03/04 04:36:07;;;;;;;147.77;44.28;;;;;;;2.97;100.00;101713.03;4950046;28;20045;-78
2021/03/04 04:38:33;;;;;;;153.30;47.58;;;;;;;2.98;100.00;101716.53;4947923;28;20047;-78
2021/03/04 04:41:02;;;;;;;185.38;48.70;;;;;;;2.99;100.00;101699.66;4943546;28;20047;-78
2021/03/04 04:43:28;;;;;;;194.95;52.75;;;;;;;2.97;100.00;101710.38;4943130;28;20051;-79
2021/03/04 04:45:53;;;;;;;203.13;53.72;;;;;;;2.91;100.00;101706.31;4947879;28;20058;-79
2021/03/04 04:48:19;;;;;;;199.73;54.05;;;;;;;2.92;100.00;101694.75;4929436;29;20155;-79
2021/03/04 04:50:44;;;;;;;219.55;54.50;;;;;;;2.91;100.00;101703.66;4945348;28;20047;-78
2021/03/04 04:53:10;;;;;;;187.13;51.28;;;;;;;3.02;100.00;101712.75;4949764;28;20047;-79
2021/03/04 04:55:36;;;;;;;188.45;50.03;;;;;;;2.92;100.00;101725.72;4949464;28;20038;-79
2021/03/04 04:58:02;;;;;;;192.15;54.50;;;;;;;2.99;100.00;101721.72;4951674;28;20042;-79
2021/03/04 05:00:27;;;;;;;211.15;53.85;;;;;;;2.98;100.00;101711.25;4949645;28;20122;-78
2021/03/04 05:02:53;;;;;;;248.13;69.95;;;;;;;2.87;100.00;101723.31;4933265;28;20047;-79
2021/03/04 05:05:18;;;;;;;220.88;57.10;;;;;;;2.94;100.00;101719.38;4930925;29;20056;-78
2021/03/04 05:07:43;;;;;;;245.27;82.18;;;;;;;2.80;100.00;101729.97;4911933;29;20066;-79
2021/03/04 05:10:09;;;;;;;188.73;49.38;;;;;;;2.83;100.00;101735.06;4912454;29;20042;-79
2021/03/04 05:12:36;;;;;;;192.55;49.88;;;;;;;2.78;100.00;101736.28;4932937;28;20106;-79
2021/03/04 05:15:07;;;;;;;167.02;47.35;;;;;;;2.82;100.00;101741.31;4943263;28;20127;-78
2021/03/04 05:17:32;;;;;;;175.30;47.17;;;;;;;2.82;100.00;101733.38;4912670;29;20036;-78
2021/03/04 05:19:57;;;;;;;168.18;47.53;;;;;;;2.93;100.00;101740.66;4914333;29;20054;-78
2021/03/04 05:22:23;;;;;;;171.10;45.35;;;;;;;2.91;100.00;101732.81;4938725;29;20043;-78
2021/03/04 05:24:48;;;;;;;179.00;47.70;;;;;;;2.80;100.00;101722.00;4912978;28;20399;-78
2021/03/04 05:27:14;;;;;;;193.23;52.63;;;;;;;2.84;100.00;101718.22;4930913;29;20039;-80
2021/03/04 05:29:39;;;;;;;192.20;52.17;;;;;;;2.85;100.00;101706.69;4926696;28;20058;-78
2021/03/04 05:32:05;;;;;;;176.40;47.25;;;;;;;2.77;100.00;101718.69;4948886;28;20047;-79
2021/03/04 05:34:30;;;;;;;182.30;50.85;;;;;;;2.86;100.00;101708.38;4908932;29;20142;-78
2021/03/04 05:36:56;;;;;;;173.95;50.10;;;;;;;3.01;100.00;101716.34;4915045;29;20398;-78
2021/03/04 05:39:21;;;;;;;176.43;47.10;;;;;;;2.83;100.00;101703.25;4924653;29;20485;-78
2021/03/04 05:41:47;;;;;;;186.48;51.90;;;;;;;2.80;100.00;101690.19;4930115;29;20059;-79
2021/03/04 05:44:13;;;;;;;177.70;53.78;;;;;;;2.84;100.00;101696.16;4928916;29;20118;-78
2021/03/04 05:46:39;;;;;;;195.10;50.00;;;;;;;2.76;100.00;101693.94;4928921;29;20577;-78
2021/03/04 05:49:07;;;;;;;176.93;51.60;;;;;;;2.81;100.00;101686.59;4926080;29;20068;-78
2021/03/04 05:51:37;;;;;;;177.50;50.30;;;;;;;2.85;100.00;101687.25;4927381;29;20044;-79
2021/03/04 05:54:06;;;;;;;164.45;47.30;;;;;;;2.78;100.00;101673.50;4931796;29;20075;-78
2021/03/04 05:56:33;;;;;;;;;;;;;;;2.68;100.00;101682.97;4904895;29;20535;-78
2021/03/04 05:58:59;;;;;;;181.10;47.47;;;;;;;2.73;100.00;101686.19;4947141;28;19918;-78
2021/03/04 06:01:25;;;;;;;184.98;49.45;;;;;;;2.70;100.00;101689.91;4923655;29;20039;-79
2021/03/04 06:03:50;;;;;;;189.40;52.38;;;;;;;2.79;100.00;101696.44;4948060;28;20047;-78
2021/03/04 06:06:16;;;;;;;188.25;50.28;;;;;;;2.75;100.00;101708.16;4931715;29;20102;-79
2021/03/04 06:08:41;;;;;;;196.65;48.75;;;;;;;2.70;100.00;101689.03;4948960;28;20534;-79
2021/03/04 06:11:07;;;;;;;193.65;48.75;;;;;;;2.67;100.00;101684.75;4902416;29;20118;-80
2021/03/04 06:13:32;;;;;;;191.40;49.58;;;;;;;2.71;100.00;101678.34;4943004;29;20047;-79
2021/03/04 06:16:00;;;;;;;216.93;49.95;;;;;;;2.83;100.00;101671.44;4931853;29;20504;-79
2021/03/04 06:18:40;;;;;;;201.48;49.97;;;;;;;2.81;100.00;101672.47;4948302;29;20061;-78
2021/03/04 06:21:28;;;;;;;179.55;45.63;;;;;;;2.77;100.00;101666.53;4939463;28;20106;-79
2021/03/04 06:23:57;;;;;;;189.60;48.70;;;;;;;2.81;100.00;101657.44;4936575;28;20046;-78
2021/03/04 06:26:24;;;;;;;;;;;;;;;2.82;100.00;101659.16;4928885;28;20491;-79
2021/03/04 06:28:49;;;;;;;197.32;50.40;;;;;;;2.72;100.00;101663.28;4947766;28;19924;-78
2021/03/04 06:31:19;;;;;;;214.60;49.20;;;;;;;2.62;100.00;101667.44;4961639;28;20472;-78
2021/03/04 06:33:44;;;;;;;199.13;49.38;;;;;;;2.69;100.00;101660.81;4949875;28;20047;-78
2021/03/04 06:36:14;;;;;;;194.52;47.30;;;;;;;2.74;100.00;101653.44;4950560;28;20043;-79
2021/03/04 06:38:40;;;;;;;186.15;49.90;;;;;;;2.69;100.00;101660.81;4947665;28;20039;-78
2021/03/04 06:41:17;;;;;;;184.27;46.53;;;;;;;2.65;100.00;101668.13;4946974;28;20130;-78
2021/03/04 06:43:43;;;;;;;242.88;78.90;;;;;;;2.61;100.00;101665.72;4948333;28;20073;-78
2021/03/04 06:46:09;;;;;;;189.82;47.78;;;;;;;2.63;100.00;101690.34;4949727;28;20075;-79
2021/03/04 06:48:35;;;;;;;160.73;41.38;;;;;;;2.66;100.00;101683.06;4950923;28;20039;-78
2021/03/04 06:51:03;;;;;;;149.23;45.10;;;;;;;2.67;100.00;101681.25;4947690;28;22122;-81
2021/03/04 06:53:30;;;;;;;127.78;38.88;;;;;;;2.62;100.00;101694.81;4954224;28;20055;-81
2021/03/04 06:56:05;;;;;;;152.23;42.28;;;;;;;2.58;100.00;101687.97;4954154;28;20058;-78
2021/03/04 06:58:34;;;;;;;157.15;41.72;;;;;;;2.60;100.00;101691.38;4965112;28;20039;-79
2021/03/04 07:01:06;;;;;;;148.63;43.60;;;;;;;2.64;100.00;101697.34;4950824;28;20043;-78
2021/03/04 07:03:39;;;;;;;152.85;42.38;;;;;;;2.70;100.00;101696.97;4961124;28;20050;-78
2021/03/04 07:06:06;;;;;;;137.93;38.55;;;;;;;2.67;100.00;101700.66;4943749;29;20067;-78
2021/03/04 07:08:37;;;;;;;139.20;39.10;;;;;;;2.67;100.00;101698.00;4952756;28;20114;-78
2021/03/04 07:11:06;;;;;;;147.05;40.25;;;;;;;2.64;100.00;101694.69;4950705;28;20519;-78
2021/03/04 07:13:33;;;;;;;145.63;40.05;;;;;;;2.64;100.00;101697.34;4951238;28;20043;-79
2021/03/04 07:16:06;;;;;;;130.35;37.03;;;;;;;2.63;100.00;101703.59;4949290;28;20054;-78
2021/03/04 07:18:38;;;;;;;116.68;36.38;;;;;;;2.74;100.00;101701.16;4951848;28;20039;-78
2021/03/04 07:21:07;;;;;;;129.20;41.63;;;;;;;2.64;100.00;101692.88;4949633;28;20051;-78
2021/03/04 07:23:34;;;;;;;;;;;;;;;2.66;100.00;101682.22;4946891;28;20054;-78
2021/03/04 07:26:01;;;;;;;131.10;40.30;;;;;;;2.62;100.00;101691.31;4946048;28;19922;-78
2021/03/04 07:28:28;;;;;;;120.20;36.13;;;;;;;2.54;100.00;101690.91;4945241;28;20070;-78
2021/03/04 07:30:54;;;;;;;122.10;34.42;;;;;;;2.45;100.00;101701.09;4950615;28;20050;-78
2021/03/04 07:33:20;;;;;;;120.70;35.60;;;;;;;2.58;100.00;101703.84;4948132;28;20051;-78
2021/03/04 07:35:47;;;;;;;125.10;36.40;;;;;;;2.57;100.00;101709.25;4950896;28;20038;-78
2021/03/04 07:38:22;;;;;;;125.03;36.13;;;;;;;2.58;100.00;101703.84;4949762;28;20058;-78
2021/03/04 07:41:13;;;;;;;110.32;36.05;;;;;;;2.70;100.00;101707.56;4944407;28;20053;-78
2021/03/04 07:43:49;;;;;;;125.45;36.63;;;;;;;2.64;100.00;101715.91;4948328;28;20036;-78
2021/03/04 07:46:44;;;;;;;124.95;37.65;;;;;;;2.59;100.00;101718.84;4927778;29;20051;-78
2021/03/04 07:49:10;;;;;;;133.73;38.13;;;;;;;2.55;100.00;101722.59;4941960;28;20035;-78
2021/03/04 07:51:44;;;;;;;130.38;39.63;;;;;;;2.63;100.00;101714.19;4939305;28;20039;-78
2021/03/04 07:54:10;;;;;;;121.50;37.55;;;;;;;2.57;100.00;101711.91;4938667;28;20095;-78
2021/03/04 07:56:35;;;;;;;128.20;37.33;;;;;;;2.57;100.00;101717.22;4927348;29;20103;-78
2021/03/04 07:59:13;;;;;;;119.63;37.00;;;;;;;2.61;100.00;101724.03;4949836;28;20047;-78
2021/03/04 08:01:43;;;;;;;130.35;39.00;;;;;;;2.65;100.00;101715.81;4958415;28;20043;-78
2021/03/04 08:04:30;;;;;;;120.53;36.50;;;;;;;2.61;100.00;101724.03;4945412;28;20102;-78
2021/03/04 08:06:57;;;;;;;120.07;39.88;;;;;;;2.66;100.00;101721.97;4948734;28;20051;-80
2021/03/04 08:09:34;;;;;;;116.55;35.35;;;;;;;2.66;100.00;101717.50;4949964;28;20043;-80
2021/03/04 08:12:06;;;;;;;119.80;35.35;;;;;;;2.59;100.00;101716.19;4964854;28;20059;-80
2021/03/04 08:14:32;;;;;;;129.23;36.13;;;;;;;2.69;100.00;101714.69;4949161;28;20047;-80
2021/03/04 08:16:58;;;;;;;122.35;36.10;;;;;;;2.64;100.00;101716.75;4945563;28;20484;-80
2021/03/04 08:19:30;;;;;;;128.75;35.97;;;;;;;2.65;100.00;101714.97;4951094;28;20093;-80
2021/03/04 08:22:08;;;;;;;128.38;35.67;;;;;;;2.66;100.00;101711.38;4952233;28;20053;-80
2021/03/04 08:24:39;;;;;;;123.97;35.35;;;;;;;2.56;100.00;101705.75;4943626;28;20059;-80
2021/03/04 08:27:08;;;;;;;131.43;37.42;;;;;;;2.58;100.00;101697.72;4941701;28;20051;-80
2021/03/04 08:29:34;;;;;;;;;;;;;;;2.61;100.00;101705.47;4949022;28;20098;-80
2021/03/04 08:32:02;;;;;;;120.07;37.58;;;;;;;2.58;100.00;101700.34;4963995;28;19926;-80
2021/03/04 08:34:35;;;;;;;130.85;37.83;;;;;;;2.57;100.00;101707.47;4944911;28;20490;-80
2021/03/04 08:37:23;;;;;;;129.60;39.53;;;;;;;2.58;100.00;101703.00;4948661;28;20476;-80
2021/03/04 08:39:59;;;;;;;135.70;38.63;;;;;;;2.65;100.00;101699.06;4943027;28;20039;-80
2021/03/04 08:42:25;;;;;;;124.72;36.70;;;;;;;2.60;100.00;101699.31;4940155;28;20283;-80
2021/03/04 08:44:51;;;;;;;116.65;33.97;;;;;;;2.59;100.00;101689.69;4947473;28;20138;-80
2021/03/04 08:47:16;;;;;;;110.30;34.17;;;;;;;2.59;100.00;101672.91;4947684;28;20456;-80
2021/03/04 08:50:00;;;;;;;107.57;34.33;;;;;;;2.60;100.00;101674.63;4946159;28;20082;-80
2021/03/04 08:52:29;;;;;;;126.07;39.15;;;;;;;2.66;100.00;101671.59;4945057;28;20075;-80
2021/03/04 08:54:58;;;;;;;117.65;39.67;;;;;;;2.66;100.00;101674.25;4963471;28;20077;-80
2021/03/04 08:57:26;;;;;;;104.20;35.05;;;;;;;2.60;100.00;101666.69;4949266;28;20079;-80
2021/03/04 09:00:06;;;;;;;105.68;34.17;;;;;;;2.61;100.00;101666.56;4949957;28;20040;-80
2021/03/04 09:02:32;;;;;;;92.32;39.63;;;;;;;2.65;100.00;101669.91;4935324;28;20052;-80
2021/03/04 09:04:57;;;;;;;72.65;25.80;;;;;;;2.60;100.00;101670.19;4962644;28;20482;-80
2021/03/04 09:07:43;;;;;;;74.35;28.15;;;;;;;2.64;100.00;101668.19;4949839;28;20050;-80
2021/03/04 09:10:09;;;;;;;69.90;26.88;;;;;;;2.60;100.00;101669.31;4944400;28;20376;-80
2021/03/04 09:12:45;;;;;;;75.15;26.63;;;;;;;2.78;100.00;101662.91;4952569;28;20052;-80
2021/03/04 09:15:17;;;;;;;71.32;24.05;;;;;;;2.69;100.00;101669.63;4967168;28;20094;-80
2021/03/04 09:17:45;;;;;;;72.35;24.90;;;;;;;2.75;100.00;101664.91;4947195;28;20071;-81
2021/03/04 09:20:12;;;;;;;72.80;25.17;;;;;;;2.77;100.00;101661.22;4949380;28;20142;-80
2021/03/04 09:22:43;;;;;;;63.00;24.27;;;;;;;2.80;100.00;101665.47;4931645;28;20050;-80
2021/03/04 09:25:15;;;;;;;65.30;24.20;;;;;;;2.77;100.00;101668.31;4947834;28;20127;-80
2021/03/04 09:27:41;;;;;;;65.63;22.40;;;;;;;2.73;100.00;101662.34;4947707;28;20586;-80
2021/03/04 09:30:08;;;;;;;70.25;30.10;;;;;;;2.74;100.00;101661.41;4950457;28;20047;-80
2021/03/04 09:32:34;;;;;;;66.57;24.25;;;;;;;2.81;100.00;101667.19;4950883;29;20047;-80
2021/03/04 09:35:10;;;;;;;69.03;24.90;;;;;;;2.90;100.00;101661.31;4950351;28;20047;-80
2021/03/04 09:37:35;;;;;;;71.78;26.80;;;;;;;2.81;100.00;101657.44;4948588;28;20074;-80
2021/03/04 09:40:00;;;;;;;72.38;25.48;;;;;;;2.73;100.00;101667.63;4949001;28;20070;-80
2021/03/04 09:42:34;;;;;;;71.40;25.88;;;;;;;2.79;100.00;101662.00;4948900;28;20492;-80
2021/03/04 09:45:11;;;;;;;68.80;25.02;;;;;;;2.82;100.00;101663.56;4946931;28;20035;-80
2021/03/04 09:47:42;;;;;;;70.03;28.38;;;;;;;2.78;100.00;101664.72;4947566;28;20439;-80
2021/03/04 09:50:27;;;;;;;69.45;23.85;;;;;;;2.68;100.00;101662.63;4938284;28;20496;-80
2021/03/04 09:52:59;;;;;;;65.28;23.60;;;;;;;2.73;100.00;101664.97;4959046;28;20078;-80
2021/03/04 09:55:25;;;;;;;64.95;25.48;;;;;;;2.74;100.00;101666.72;4940761;28;20043;-80
2021/03/04 09:57:50;;;;;;;64.70;22.58;;;;;;;2.76;100.00;101666.59;4955580;28;20114;-80
2021/03/04 10:00:16;;;;;;;67.07;24.58;;;;;;;2.77;100.00;101665.66;4915696;29;20566;-80
2021/03/04 10:02:46;;;;;;;57.00;21.52;;;;;;;2.72;100.00;101657.97;4947652;28;20059;-80
2021/03/04 10:05:20;;;;;;;58.30;22.98;;;;;;;2.74;100.00;101655.25;4936055;28;20087;-80
2021/03/04 10:07:50;;;;;;;61.30;23.75;;;;;;;2.78;100.00;101656.75;4961380;28;20397;-80
2021/03/04 10:10:18;;;;;;;65.35;24.45;;;;;;;2.75;100.00;101659.59;4946011;29;20628;-80
2021/03/04 10:13:01;;;;;;;79.80;32.25;;;;;;;2.72;100.00;101666.78;4953222;28;20449;-80
2021/03/04 10:15:34;;;;;;;67.25;26.35;;;;;;;2.79;100.00;101663.75;4954019;28;20163;-80
2021/03/04 10:18:03;;;;;;;63.70;23.27;;;;;;;2.81;100.00;101660.06;4962000;28;20065;-80
2021/03/04 10:20:28;;;;;;;67.57;24.27;;;;;;;2.88;100.00;101663.22;4951374;28;20066;-80
2021/03/04 10:22:55;;;;;;;72.72;26.38;;;;;;;2.87;100.00;101657.03;4964216;28;20162;-80
2021/03/04 10:25:20;;;;;;;71.85;23.25;;;;;;;2.79;100.00;101655.81;4952676;28;20050;-81
2021/03/04 10:27:46;;;;;;;54.17;20.40;;;;;;;2.80;100.00;101652.22;4943242;28;20039;-80
2021/03/04 10:30:13;;;;;;;47.05;18.50;;;;;;;2.81;100.00;101654.78;4951448;28;20077;-80
2021/03/04 10:32:39;;;;;;;42.92;18.33;;;;;;;2.82;100.00;101661.78;4950317;28;20475;-80
2021/03/04 10:35:13;;;;;;;46.40;19.33;;;;;;;2.82;100.00;101667.09;4952061;28;20043;-80
2021/03/04 10:37:39;;;;;;;39.53;17.83;;;;;;;2.85;100.00;101658.97;4950705;28;20040;-80
2021/03/04 10:40:06;;;;;;;42.50;19.23;;;;;;;2.97;100.00;101661.81;4951028;28;20043;-80
2021/03/04 10:42:32;;;;;;;39.72;16.13;;;;;;;3.00;100.00;101651.00;4933161;28;20484;-80
2021/03/04 10:44:59;;;;;;;37.33;16.48;;;;;;;2.98;100.00;101650.25;4949901;28;20119;-80
2021/03/04 10:47:27;;;;;;;33.63;15.70;;;;;;;2.95;100.00;101643.34;4950297;28;20047;-80
2021/03/04 10:49:52;;;;;;;33.70;15.48;;;;;;;2.96;100.00;101645.03;4951965;28;20571;-80
2021/03/04 10:52:18;;;;;;;28.75;13.88;;;;;;;3.00;100.00;101643.06;4950682;28;20051;-80
2021/03/04 10:54:43;;;;;;;27.08;12.30;;;;;;;3.05;100.00;101656.88;4949628;28;20099;-80
2021/03/04 10:57:09;;;;;;;26.65;11.20;;;;;;;3.01;100.00;101658.00;4952825;28;20039;-80
2021/03/04 10:59:34;;;;;;;29.60;13.52;;;;;;;3.02;100.00;101654.41;4951055;28;20047;-80
2021/03/04 11:02:00;;;;;;;46.45;21.25;;;;;;;3.06;100.00;101653.28;4950903;28;20549;-80
2021/03/04 11:04:25;;;;;;;27.25;13.10;;;;;;;3.16;100.00;101659.72;4950881;28;20043;-80
2021/03/04 11:06:50;;;;;;;27.75;15.65;;;;;;;3.14;100.00;101654.50;4948908;28;20079;-81
2021/03/04 11:09:16;;;;;;;28.52;14.07;;;;;;;3.19;100.00;101658.66;4960481;28;20065;-80